Time;durP1;ratioP1;P1;durP2;ratioP2;P2;SDS_P1;SDS_P2;PMS_P1;PMS_P2;Temp;Humidity;BMP_temperature;BMP_pressure;BME280_temperature;BME280_humidity;BME280_pressure;Samples;Min_cycle;Max_cycle;Signal;HPM_P1;HPM_P2
2022/10/03 00:00:17;;;;;;;8.30;2.50;;;12.80;1.00;;;;;;5044703;28;20476;-54
2022/10/03 00:03:04;;;;;;;5.10;2.50;;;12.90;1.00;;;;;;5046742;28;20475;-55
2022/10/03 00:05:50;;;;;;;10.30;2.60;;;12.90;1.00;;;;;;5049337;28;20466;-53
2022/10/03 00:08:37;;;;;;;5.53;2.87;;;12.90;1.00;;;;;;5048261;28;20450;-55
2022/10/03 00:11:23;;;;;;;4.13;2.27;;;12.90;1.00;;;;;;5049067;28;20441;-54
2022/10/03 00:14:16;;;;;;;5.90;2.30;;;14.50;1.00;;;;;;5050248;28;20439;-56
2022/10/03 00:16:52;;;;;;;6.80;2.73;;;12.80;1.00;;;;;;5049502;28;20451;-55
2022/10/03 00:19:30;;;;;;;5.27;3.10;;;12.80;1.00;;;;;;5045025;28;20461;-56
2022/10/03 00:22:13;;;;;;;9.37;3.43;;;12.70;1.00;;;;;;5049595;28;20448;-54
2022/10/03 00:25:01;;;;;;;5.90;2.10;;;12.70;1.00;;;;;;5047352;28;20813;-54
2022/10/03 00:27:42;;;;;;;7.60;2.40;;;12.70;1.00;;;;;;5049630;28;20443;-53
2022/10/03 00:30:18;;;;;;;7.87;2.50;;;12.70;1.00;;;;;;5044817;28;20423;-55
2022/10/03 00:33:02;;;;;;;12.43;2.90;;;12.70;1.00;;;;;;5044860;28;20467;-53
2022/10/03 00:35:38;;;;;;;8.63;3.27;;;12.70;1.00;;;;;;5047844;28;20421;-55
2022/10/03 00:38:10;;;;;;;7.90;3.07;;;12.70;1.00;;;;;;5049659;28;20451;-54
2022/10/03 00:41:08;;;;;;;14.60;3.37;;;12.70;1.00;;;;;;5048775;28;20441;-55
2022/10/03 00:43:45;;;;;;;9.27;2.67;;;12.70;1.00;;;;;;5050141;28;20529;-54
2022/10/03 00:46:41;;;;;;;6.97;3.00;;;12.70;1.00;;;;;;5042263;28;20556;-54
2022/10/03 00:49:19;;;;;;;10.40;2.10;;;12.70;1.00;;;;;;5044548;28;20447;-54
2022/10/03 00:52:22;;;;;;;10.73;2.87;;;12.70;1.00;;;;;;5048698;28;20457;-54
2022/10/03 00:55:16;;;;;;;11.93;2.50;;;12.80;1.00;;;;;;5057270;28;20405;-55
2022/10/03 00:57:59;;;;;;;10.17;2.63;;;12.80;1.00;;;;;;5048115;28;20451;-53
2022/10/03 01:00:33;;;;;;;6.60;1.80;;;12.80;1.00;;;;;;5048435;28;20974;-53
2022/10/03 01:03:45;;;;;;;9.90;3.20;;;12.90;1.00;;;;;;5046085;28;20441;-53
2022/10/03 01:06:29;;;;;;;10.17;2.27;;;12.90;1.00;;;;;;5049919;28;20469;-53
2022/10/03 01:09:30;;;;;;;8.33;2.50;;;12.90;1.00;;;;;;5049135;28;20497;-52
2022/10/03 01:12:04;;;;;;;6.53;2.10;;;13.00;1.00;;;;;;5047009;28;20849;-54
2022/10/03 01:14:39;;;;;;;13.50;3.90;;;13.00;1.00;;;;;;5049441;28;20465;-54
2022/10/03 01:17:26;;;;;;;11.00;3.10;;;13.10;1.00;;;;;;5050378;28;20743;-54
2022/10/03 01:20:10;;;;;;;6.00;3.17;;;13.10;1.00;;;;;;5051571;28;20453;-52
2022/10/03 01:22:41;;;;;;;9.03;2.30;;;13.10;1.00;;;;;;5068590;28;20518;-54
2022/10/03 01:25:17;;;;;;;6.43;2.27;;;13.20;1.00;;;;;;5062972;28;20884;-54
2022/10/03 01:30:58;;;;;;;7.60;2.33;;;13.20;1.00;;;;;;5048151;28;20879;-54
2022/10/03 01:33:36;;;;;;;6.30;2.63;;;13.20;1.00;;;;;;5049248;28;20445;-54
2022/10/03 01:36:09;;;;;;;11.87;2.60;;;13.20;1.00;;;;;;5052888;28;20502;-53
2022/10/03 01:38:52;;;;;;;11.13;2.73;;;13.20;1.00;;;;;;5059774;28;20514;-55
2022/10/03 01:41:32;;;;;;;8.07;2.80;;;13.30;1.00;;;;;;5048187;28;20489;-53
2022/10/03 01:44:23;;;;;;;8.70;2.00;;;13.20;1.00;;;;;;5047597;28;20448;-54
2022/10/03 01:47:23;;;;;;;7.40;2.00;;;13.10;1.00;;;;;;5044959;28;20469;-54
2022/10/03 01:50:10;;;;;;;15.33;3.50;;;13.10;1.00;;;;;;5045849;28;20773;-54
2022/10/03 01:52:43;;;;;;;4.30;2.47;;;13.20;1.00;;;;;;5048204;28;20502;-53
2022/10/03 01:55:30;;;;;;;11.33;3.20;;;13.20;1.00;;;;;;5051917;28;20419;-54
2022/10/03 01:58:09;;;;;;;7.73;3.07;;;13.10;1.00;;;;;;5053433;28;20416;-54
2022/10/03 02:00:56;;;;;;;8.43;2.73;;;13.10;1.00;;;;;;5051481;28;20451;-52
2022/10/03 02:03:27;;;;;;;9.17;2.50;;;13.10;1.00;;;;;;5050996;28;20851;-53
2022/10/03 02:06:09;;;;;;;11.93;2.80;;;13.20;1.00;;;;;;5050854;28;20478;-56
2022/10/03 02:08:56;;;;;;;12.37;2.20;;;13.30;1.00;;;;;;5050264;28;20432;-54
2022/10/03 02:11:49;;;;;;;8.93;2.10;;;13.40;1.00;;;;;;5051405;28;20985;-54
2022/10/03 02:14:49;;;;;;;7.30;2.17;;;13.30;1.00;;;;;;5041721;28;20483;-55
2022/10/03 02:17:40;;;;;;;13.93;2.60;;;13.20;1.00;;;;;;5019452;28;20470;-54
2022/10/03 02:20:22;;;;;;;8.00;3.00;;;13.20;1.00;;;;;;5059911;28;20435;-54
2022/10/03 02:22:52;;;;;;;13.47;2.57;;;13.20;1.00;;;;;;5046911;28;20446;-55
2022/10/03 02:25:39;;;;;;;6.70;2.40;;;13.10;1.00;;;;;;5051812;28;20471;-54
2022/10/03 02:28:32;;;;;;;7.80;2.43;;;13.10;1.00;;;;;;5048540;28;20495;-54
2022/10/03 02:31:43;;;;;;;6.37;2.30;;;13.00;1.00;;;;;;5046072;28;20450;-53
2022/10/03 02:34:43;;;;;;;14.30;3.37;;;12.90;1.00;;;;;;5050920;28;20440;-55
2022/10/03 02:37:23;;;;;;;10.63;2.80;;;12.90;1.00;;;;;;5050182;28;20415;-55
2022/10/03 02:40:12;;;;;;;8.77;2.60;;;13.10;1.00;;;;;;5048710;28;20471;-55
2022/10/03 02:43:01;;;;;;;7.13;1.90;;;13.00;1.00;;;;;;5048530;28;20578;-53
2022/10/03 02:45:35;;;;;;;13.37;3.00;;;13.10;1.00;;;;;;5056007;28;20482;-55
2022/10/03 02:48:26;;;;;;;15.27;3.13;;;13.10;1.00;;;;;;5046713;28;20425;-54
2022/10/03 02:51:23;;;;;;;10.00;2.50;;;13.10;1.00;;;;;;5052107;28;20518;-53
2022/10/03 02:54:07;;;;;;;16.33;2.97;;;13.10;1.00;;;;;;5051426;28;20446;-54
2022/10/03 02:56:48;;;;;;;8.70;2.33;;;13.10;1.00;;;;;;5051356;28;20525;-54
2022/10/03 03:00:03;;;;;;;9.40;3.33;;;13.20;1.00;;;;;;5051371;28;20447;-55
2022/10/03 03:03:00;;;;;;;12.40;3.07;;;13.10;1.00;;;;;;5048414;28;20453;-55
2022/10/03 03:05:35;;;;;;;8.80;3.77;;;13.20;1.00;;;;;;5049870;28;20490;-54
2022/10/03 03:08:17;;;;;;;8.33;3.60;;;13.10;1.00;;;;;;5051343;28;20514;-54
2022/10/03 03:11:17;;;;;;;11.63;3.90;;;13.10;1.00;;;;;;5054021;28;20452;-54
2022/10/03 03:14:07;;;;;;;12.30;3.73;;;13.10;1.00;;;;;;5051193;28;20423;-55
2022/10/03 03:16:52;;;;;;;7.60;4.17;;;13.10;1.00;;;;;;5050252;28;20423;-54
2022/10/03 03:20:01;;;;;;;17.53;5.10;;;13.10;1.00;;;;;;5047101;28;20453;-54
2022/10/03 03:23:09;;;;;;;14.57;4.00;;;13.10;1.00;;;;;;5052325;28;20534;-54
2022/10/03 03:25:55;;;;;;;10.47;4.00;;;13.20;1.00;;;;;;5051044;28;20518;-54
2022/10/03 03:28:23;;;;;;;15.60;4.67;;;13.10;1.00;;;;;;5048355;28;20420;-54
2022/10/03 03:31:10;;;;;;;11.17;4.83;;;13.10;1.00;;;;;;5051758;28;20424;-53
2022/10/03 03:33:52;;;;;;;8.60;3.93;;;13.10;1.00;;;;;;5048192;28;20497;-54
2022/10/03 03:36:53;;;;;;;11.40;4.27;;;13.10;1.00;;;;;;5044787;28;20431;-53
2022/10/03 03:39:41;;;;;;;7.60;4.10;;;13.10;1.00;;;;;;5045180;28;20442;-55
2022/10/03 03:42:11;;;;;;;11.13;4.67;;;13.10;1.00;;;;;;5050356;28;20481;-54
2022/10/03 03:45:10;;;;;;;11.30;4.13;;;13.10;1.00;;;;;;5049474;28;20447;-54
2022/10/03 03:47:46;;;;;;;7.40;3.93;;;13.10;1.00;;;;;;5049221;28;20453;-54
2022/10/03 03:50:29;;;;;;;6.37;3.30;;;13.10;1.00;;;;;;5051081;28;20441;-55
2022/10/03 03:53:29;;;;;;;8.27;3.30;;;13.10;1.00;;;;;;5049644;28;20428;-54
2022/10/03 03:56:18;;;;;;;7.83;3.87;;;13.10;1.00;;;;;;5047850;28;20546;-53
2022/10/03 03:59:01;;;;;;;17.10;4.20;;;13.10;1.00;;;;;;5048447;28;20425;-55
2022/10/03 04:02:06;;;;;;;10.43;3.80;;;13.10;1.00;;;;;;5045403;28;20968;-54
2022/10/03 04:05:00;;;;;;;10.00;4.50;;;13.00;1.00;;;;;;5051098;28;20765;-55
2022/10/03 04:08:09;;;;;;;8.40;3.50;;;13.00;1.00;;;;;;5049887;28;20470;-55
2022/10/03 04:11:02;;;;;;;10.20;3.77;;;13.00;1.00;;;;;;5050045;28;20625;-53
2022/10/03 04:13:40;;;;;;;8.33;3.57;;;13.10;1.00;;;;;;5050090;28;20504;-54
2022/10/03 04:16:14;;;;;;;8.03;3.70;;;13.20;1.00;;;;;;5050590;28;20514;-54
2022/10/03 04:18:57;;;;;;;8.63;3.80;;;13.20;1.00;;;;;;5050386;28;20464;-55
2022/10/03 04:21:45;;;;;;;11.37;4.10;;;13.10;1.00;;;;;;5045936;28;20422;-54
2022/10/03 04:24:35;;;;;;;13.43;4.20;;;13.20;1.00;;;;;;5049837;28;20486;-54
2022/10/03 04:27:43;;;;;;;5.47;3.80;;;13.20;1.00;;;;;;5046866;28;20477;-54
2022/10/03 04:30:28;;;;;;;18.00;4.10;;;13.20;1.00;;;;;;5040455;28;20454;-54
2022/10/03 04:33:13;;;;;;;11.37;4.50;;;13.20;1.00;;;;;;5042730;28;20806;-54
2022/10/03 04:36:13;;;;;;;8.77;4.23;;;13.10;1.00;;;;;;5042734;28;20539;-52
2022/10/03 04:38:57;;;;;;;10.97;4.60;;;13.10;1.00;;;;;;5031609;28;20534;-54
2022/10/03 04:41:43;;;;;;;13.37;4.93;;;13.10;1.00;;;;;;5050682;28;20431;-53
2022/10/03 04:44:24;;;;;;;11.37;4.90;;;13.10;1.00;;;;;;5049845;28;20829;-55
2022/10/03 04:47:05;;;;;;;7.40;4.60;;;13.20;1.00;;;;;;5054989;28;20459;-53
2022/10/03 04:49:56;;;;;;;9.20;4.47;;;13.10;1.00;;;;;;5046706;28;20528;-54
2022/10/03 04:52:58;;;;;;;10.97;6.10;;;13.20;1.00;;;;;;5046355;28;20456;-53
2022/10/03 04:55:46;;;;;;;10.67;4.77;;;13.10;1.00;;;;;;5048445;28;20413;-54
2022/10/03 04:58:43;;;;;;;16.70;4.70;;;13.00;1.00;;;;;;5042305;28;20979;-54
2022/10/03 05:01:25;;;;;;;18.90;5.53;;;13.00;1.00;;;;;;5040083;28;20443;-53
2022/10/03 05:04:25;;;;;;;14.93;4.43;;;13.00;1.00;;;;;;5042808;28;20524;-52
2022/10/03 05:07:18;;;;;;;12.67;4.87;;;12.90;1.00;;;;;;5049066;28;20468;-53
2022/10/03 05:10:16;;;;;;;8.57;4.50;;;12.90;1.00;;;;;;5050174;28;20457;-54
2022/10/03 05:13:00;;;;;;;13.43;5.80;;;12.80;1.00;;;;;;5047332;28;20853;-55
2022/10/03 05:15:53;;;;;;;9.47;5.37;;;12.80;1.00;;;;;;5044312;28;20975;-53
2022/10/03 05:18:37;;;;;;;12.63;7.30;;;12.90;1.00;;;;;;5045209;28;20480;-55
2022/10/03 05:21:31;;;;;;;16.10;6.30;;;12.90;1.00;;;;;;5045450;28;20439;-52
2022/10/03 05:24:14;;;;;;;21.93;6.00;;;12.90;1.00;;;;;;5042072;28;20608;-55
2022/10/03 05:27:18;;;;;;;8.27;5.60;;;12.90;1.00;;;;;;5046904;28;20463;-55
2022/10/03 05:29:58;;;;;;;11.13;6.40;;;12.90;1.00;;;;;;5048011;28;20451;-55
2022/10/03 05:32:36;;;;;;;9.53;5.00;;;12.90;1.00;;;;;;5053226;28;20969;-55
2022/10/03 05:35:19;;;;;;;9.07;4.93;;;12.80;1.00;;;;;;5052831;28;20417;-54
2022/10/03 05:38:11;;;;;;;9.80;5.23;;;12.90;1.00;;;;;;5052187;28;20451;-54
2022/10/03 05:40:58;;;;;;;11.83;5.80;;;13.00;1.00;;;;;;5048505;28;20954;-54
2022/10/03 05:43:39;;;;;;;10.87;4.60;;;12.90;1.00;;;;;;5049685;28;20523;-54
2022/10/03 05:46:37;;;;;;;11.73;5.43;;;12.90;1.00;;;;;;5054134;28;20432;-55
2022/10/03 05:49:41;;;;;;;10.43;4.40;;;12.90;1.00;;;;;;5051686;28;20456;-52
2022/10/03 05:52:12;;;;;;;10.00;5.30;;;12.90;1.00;;;;;;5030811;28;20482;-53
2022/10/03 05:54:49;;;;;;;6.40;3.90;;;13.00;1.00;;;;;;5046882;28;20773;-54
2022/10/03 05:57:30;;;;;;;8.87;4.20;;;13.00;1.00;;;;;;5050368;28;20495;-54
2022/10/03 06:00:06;;;;;;;8.03;3.90;;;13.00;1.00;;;;;;5050656;28;21036;-54
2022/10/03 06:02:41;;;;;;;9.53;4.07;;;13.00;1.00;;;;;;5051634;28;20500;-55
2022/10/03 06:05:36;;;;;;;10.37;4.63;;;13.00;1.00;;;;;;5051464;28;20899;-55
2022/10/03 06:08:01;;;;;;;10.10;4.53;;;13.00;1.00;;;;;;5051180;28;20469;-53
2022/10/03 06:10:43;;;;;;;9.23;4.70;;;13.10;1.00;;;;;;5051864;28;20432;-55
2022/10/03 06:13:25;;;;;;;8.33;3.93;;;13.10;1.00;;;;;;5053185;28;20228;-54
2022/10/03 06:16:25;;;;;;;8.27;3.80;;;13.10;1.00;;;;;;5050591;28;20428;-54
2022/10/03 06:19:02;;;;;;;6.30;3.80;;;13.20;1.00;;;;;;5051312;28;20429;-55
2022/10/03 06:22:02;;;;;;;10.07;3.90;;;13.20;1.00;;;;;;5067599;28;20434;-54
2022/10/03 06:24:46;;;;;;;15.07;4.77;;;13.20;1.00;;;;;;5054450;28;20482;-54
2022/10/03 06:27:33;;;;;;;13.87;4.90;;;13.10;1.00;;;;;;5064408;28;20438;-55
2022/10/03 06:30:20;;;;;;;12.20;4.40;;;13.20;1.00;;;;;;5051890;28;20411;-55
2022/10/03 06:33:24;;;;;;;10.50;4.07;;;13.30;1.00;;;;;;5046740;28;20416;-55
2022/10/03 06:36:22;;;;;;;9.00;4.07;;;13.40;1.00;;;;;;5049336;28;20429;-55
2022/10/03 06:39:13;;;;;;;12.40;4.53;;;13.30;1.00;;;;;;5051090;28;20994;-56
2022/10/03 06:42:16;;;;;;;7.33;5.30;;;13.40;1.00;;;;;;5047529;28;20413;-55
2022/10/03 06:45:11;;;;;;;11.70;4.53;;;13.50;1.00;;;;;;5049597;28;20480;-54
2022/10/03 06:48:07;;;;;;;9.33;4.03;;;13.40;1.00;;;;;;5046555;28;20510;-55
2022/10/03 06:50:41;;;;;;;11.00;4.90;;;13.50;1.00;;;;;;5049996;28;20497;-56
2022/10/03 06:53:54;;;;;;;7.70;4.17;;;13.50;1.00;;;;;;5046660;28;20915;-56
2022/10/03 06:56:31;;;;;;;14.87;5.40;;;13.60;1.00;;;;;;5048107;28;20931;-56
2022/10/03 06:59:04;;;;;;;9.60;4.80;;;13.60;1.00;;;;;;5048559;28;20418;-55
2022/10/03 07:01:49;;;;;;;9.10;4.30;;;13.50;1.00;;;;;;5050329;28;20452;-54
2022/10/03 07:04:59;;;;;;;12.23;4.73;;;13.50;1.00;;;;;;5050694;28;20454;-54
2022/10/03 07:07:33;;;;;;;7.50;4.00;;;13.70;1.00;;;;;;5047770;28;20577;-55
2022/10/03 07:09:59;;;;;;;8.50;3.90;;;13.80;1.00;;;;;;5051118;28;20916;-57
2022/10/03 07:12:55;;;;;;;13.83;4.67;;;13.80;1.00;;;;;;5058426;28;20435;-56
2022/10/03 07:15:45;;;;;;;9.77;5.33;;;13.80;1.00;;;;;;5050958;28;20524;-53
2022/10/03 07:18:41;;;;;;;8.00;4.67;;;13.80;1.00;;;;;;5058178;28;20456;-56
2022/10/03 07:21:42;;;;;;;7.33;4.17;;;13.70;1.00;;;;;;5047375;28;20409;-58
2022/10/03 07:24:26;;;;;;;7.23;4.10;;;13.70;1.00;;;;;;5028381;28;20958;-54
2022/10/03 07:27:10;;;;;;;10.70;4.60;;;13.80;1.00;;;;;;5045895;28;20459;-56
2022/10/03 07:30:07;;;;;;;21.03;6.43;;;13.90;1.00;;;;;;5048979;28;20420;-53
2022/10/03 07:32:51;;;;;;;13.00;5.80;;;13.70;1.00;;;;;;5050907;28;20449;-56
2022/10/03 07:38:56;;;;;;;18.10;6.27;;;13.30;1.00;;;;;;5050373;28;20439;-54
2022/10/03 07:38:58;;;;;;;11.20;6.50;;;13.10;1.00;;;;;;5050255;28;20432;-55
2022/10/03 07:41:37;;;;;;;14.47;6.77;;;12.90;1.00;;;;;;5047818;28;20488;-55
2022/10/03 07:44:27;;;;;;;15.67;6.73;;;12.90;1.00;;;;;;5046588;28;20474;-54
2022/10/03 07:47:29;;;;;;;9.80;6.87;;;13.00;85.20;;;;;;5048668;28;20871;-53
2022/10/03 07:50:01;;;;;;;9.40;6.37;;;12.90;79.70;;;;;;5049711;28;20981;-54
2022/10/03 07:52:42;;;;;;;13.53;6.50;;;12.90;94.40;;;;;;5049102;28;20500;-54
2022/10/03 07:55:23;;;;;;;11.20;6.00;;;13.00;99.90;;;;;;5044892;28;20427;-55
2022/10/03 07:58:07;;;;;;;14.17;7.27;;;13.10;99.90;;;;;;5049330;28;20473;-55
2022/10/03 08:00:49;;;;;;;9.53;6.10;;;13.10;99.90;;;;;;5047790;28;20936;-55
2022/10/03 08:03:37;;;;;;;15.83;6.53;;;13.30;99.90;;;;;;5045281;28;20450;-54
2022/10/03 08:06:17;;;;;;;12.40;5.57;;;13.40;98.90;;;;;;5040442;28;20451;-54
2022/10/03 08:09:00;;;;;;;16.87;5.23;;;13.40;64.50;;;;;;5043144;28;20770;-54
2022/10/03 08:11:44;;;;;;;12.43;5.77;;;13.10;47.50;;;;;;5042390;28;20460;-54
2022/10/03 08:14:12;;;;;;;13.10;5.73;;;13.20;55.90;;;;;;5048766;28;20455;-55
2022/10/03 08:17:03;;;;;;;11.87;6.70;;;13.20;51.40;;;;;;5044893;28;20461;-55
2022/10/03 08:19:57;;;;;;;12.83;5.70;;;13.40;47.80;;;;;;5049338;28;20447;-55
2022/10/03 08:22:44;;;;;;;10.37;6.33;;;13.30;42.40;;;;;;5046139;28;20433;-55
2022/10/03 08:25:13;;;;;;;12.73;5.77;;;13.40;29.00;;;;;;5057093;28;21188;-56
2022/10/03 08:27:51;;;;;;;10.83;6.40;;;13.40;23.90;;;;;;5049420;28;21027;-56
2022/10/03 08:30:28;;;;;;;9.33;5.47;;;13.50;21.30;;;;;;5052595;28;20917;-53
2022/10/03 08:33:31;;;;;;;11.53;5.47;;;13.60;2.90;;;;;;5055263;28;20438;-57
2022/10/03 08:36:00;;;;;;;8.30;5.27;;;13.70;1.00;;;;;;5042724;28;20443;-54
2022/10/03 08:38:38;;;;;;;11.60;5.50;;;13.90;1.00;;;;;;5048065;28;21040;-55
2022/10/03 08:41:06;;;;;;;10.83;4.30;;;13.80;1.00;;;;;;5050727;28;20443;-57
2022/10/03 08:43:54;;;;;;;13.07;4.60;;;13.90;1.00;;;;;;5049441;28;20460;-56
2022/10/03 08:46:40;;;;;;;10.23;4.60;;;14.00;1.00;;;;;;5045852;28;20946;-55
2022/10/03 08:49:40;;;;;;;7.70;3.87;;;14.10;1.00;;;;;;5043297;28;20447;-56
2022/10/03 08:52:29;;;;;;;13.20;4.47;;;14.10;1.00;;;;;;5052931;28;20528;-55
2022/10/03 08:55:18;;;;;;;10.83;4.00;;;14.10;1.00;;;;;;5049428;28;20443;-55
2022/10/03 08:58:07;;;;;;;7.20;4.10;;;14.00;1.00;;;;;;5045019;28;20420;-53
2022/10/03 09:01:04;;;;;;;6.77;3.60;;;14.00;1.00;;;;;;5041296;28;20460;-55
2022/10/03 09:04:05;;;;;;;6.47;3.50;;;14.10;1.00;;;;;;5039561;28;20921;-55
2022/10/03 09:07:18;;;;;;;9.20;4.27;;;14.10;1.00;;;;;;5050503;28;20469;-55
2022/10/03 09:10:02;;;;;;;7.43;4.37;;;14.30;1.00;;;;;;5047742;28;20430;-54
2022/10/03 09:12:43;;;;;;;7.13;3.63;;;14.50;1.00;;;;;;5034987;28;20904;-56
2022/10/03 09:15:27;;;;;;;11.20;4.33;;;14.70;1.00;;;;;;5046199;28;20875;-56
2022/10/03 09:18:21;;;;;;;5.97;3.03;;;14.70;1.00;;;;;;5043968;28;20422;-55
2022/10/03 09:21:05;;;;;;;12.87;4.20;;;14.80;1.00;;;;;;5043089;28;20441;-54
2022/10/03 09:23:50;;;;;;;10.13;4.50;;;14.50;1.00;;;;;;5048941;28;20466;-56
2022/10/03 09:26:46;;;;;;;9.67;4.63;;;14.60;1.00;;;;;;5049777;28;20827;-55
2022/10/03 09:29:30;;;;;;;11.37;2.90;;;14.80;1.00;;;;;;5048881;28;20456;-56
2022/10/03 09:32:05;;;;;;;14.13;4.60;;;14.80;1.00;;;;;;5045275;28;20940;-54
2022/10/03 09:34:47;;;;;;;6.47;3.23;;;15.00;1.00;;;;;;5041098;28;20405;-54
2022/10/03 09:37:33;;;;;;;5.77;3.50;;;14.80;1.00;;;;;;5048854;28;20463;-54
2022/10/03 09:40:36;;;;;;;7.13;4.20;;;14.60;1.00;;;;;;5048010;28;20453;-54
2022/10/03 09:43:16;;;;;;;4.33;2.70;;;14.60;1.00;;;;;;5039001;28;20463;-55
2022/10/03 09:46:21;;;;;;;6.83;2.80;;;14.60;1.00;;;;;;5047670;28;20462;-55
2022/10/03 09:49:21;;;;;;;6.53;3.60;;;14.70;1.00;;;;;;5037150;28;20428;-53
2022/10/03 09:52:11;;;;;;;13.50;4.07;;;15.30;1.00;;;;;;5040755;28;20449;-56
2022/10/03 09:54:50;;;;;;;7.10;2.57;;;15.70;1.00;;;;;;5043981;28;20432;-56
2022/10/03 09:57:44;;;;;;;7.53;3.13;;;15.80;1.00;;;;;;5043609;28;20470;-53
2022/10/03 10:00:15;;;;;;;5.90;2.53;;;15.90;1.00;;;;;;5045140;28;20467;-56
2022/10/03 10:03:02;;;;;;;4.70;2.30;;;15.70;1.00;;;;;;5048572;28;20444;-53
2022/10/03 10:05:59;;;;;;;6.33;2.53;;;15.50;1.00;;;;;;5047593;28;20436;-55
2022/10/03 10:09:03;;;;;;;5.80;2.30;;;15.30;1.00;;;;;;5046101;28;20481;-55
2022/10/03 10:11:57;;;;;;;7.33;2.87;;;15.10;1.00;;;;;;5050888;28;20526;-56
2022/10/03 10:14:25;;;;;;;8.40;2.77;;;15.10;1.00;;;;;;5067186;28;20811;-53
2022/10/03 10:17:43;;;;;;;5.43;2.20;;;15.20;1.00;;;;;;5053508;28;20944;-56
2022/10/03 10:20:30;;;;;;;4.33;2.37;;;15.40;1.00;;;;;;5038852;28;20414;-55
2022/10/03 10:23:37;;;;;;;5.23;2.40;;;15.50;1.00;;;;;;5050026;28;21144;-54
2022/10/03 10:26:44;;;;;;;6.27;3.47;;;15.40;1.00;;;;;;5039648;28;20458;-53
2022/10/03 10:29:19;;;;;;;8.53;2.80;;;15.20;1.00;;;;;;5046785;28;20416;-52
2022/10/03 10:31:51;;;;;;;6.97;3.00;;;15.40;1.00;;;;;;5051052;28;20496;-54
2022/10/03 10:34:55;;;;;;;9.43;2.87;;;15.50;1.00;;;;;;5043367;28;20537;-52
2022/10/03 10:37:42;;;;;;;5.50;2.37;;;15.60;1.00;;;;;;5048100;28;20882;-55
2022/10/03 10:40:36;;;;;;;6.60;2.50;;;15.40;1.00;;;;;;5046507;28;20866;-56
2022/10/03 10:43:35;;;;;;;7.03;2.23;;;15.30;1.00;;;;;;5049278;28;20535;-52
2022/10/03 10:46:21;;;;;;;3.13;2.20;;;15.70;1.00;;;;;;5043985;28;20469;-56
2022/10/03 10:49:24;;;;;;;5.00;2.20;;;16.00;1.00;;;;;;5049023;28;20444;-53
2022/10/03 10:52:37;;;;;;;4.60;2.43;;;16.00;1.00;;;;;;5048233;28;20435;-55
2022/10/03 10:55:21;;;;;;;5.80;1.93;;;15.70;1.00;;;;;;5050988;28;20439;-53
2022/10/03 10:58:05;;;;;;;7.67;2.40;;;15.70;1.00;;;;;;5051065;28;20451;-55
2022/10/03 11:01:06;;;;;;;11.67;2.83;;;15.90;1.00;;;;;;5041190;28;20449;-55
2022/10/03 11:04:09;;;;;;;6.50;2.03;;;16.20;1.00;;;;;;5052284;28;20991;-55
2022/10/03 11:07:02;;;;;;;4.53;2.00;;;16.30;1.00;;;;;;5044890;28;20473;-55
2022/10/03 11:09:40;;;;;;;7.63;2.77;;;16.20;1.00;;;;;;5044636;28;20797;-58
2022/10/03 11:12:24;;;;;;;5.90;1.87;;;16.40;1.00;;;;;;5045240;28;20775;-56
2022/10/03 11:15:13;;;;;;;6.67;2.90;;;16.50;1.00;;;;;;5044789;28;20495;-57
2022/10/03 11:18:10;;;;;;;6.57;2.40;;;16.20;1.00;;;;;;5040997;28;20490;-54
2022/10/03 11:21:03;;;;;;;8.00;2.53;;;16.20;1.00;;;;;;5045322;28;20476;-55
2022/10/03 11:24:06;;;;;;;8.23;2.50;;;16.20;1.00;;;;;;5045585;28;20785;-56
2022/10/03 11:26:53;;;;;;;6.10;2.30;;;16.00;1.00;;;;;;5044216;28;20468;-56
2022/10/03 11:29:56;;;;;;;7.80;2.27;;;16.40;1.00;;;;;;5049910;28;20467;-55
2022/10/03 11:33:00;;;;;;;3.60;2.07;;;16.50;1.00;;;;;;5042706;28;20541;-54
2022/10/03 11:36:16;;;;;;;8.60;2.10;;;16.30;1.00;;;;;;5046439;28;20418;-57
2022/10/03 11:39:01;;;;;;;9.90;2.30;;;16.30;1.00;;;;;;5051714;28;20498;-54
2022/10/03 11:41:39;;;;;;;6.77;2.00;;;16.40;1.00;;;;;;5051969;28;20524;-54
2022/10/03 11:44:32;;;;;;;6.00;2.33;;;16.40;1.00;;;;;;5059605;28;20507;-55
2022/10/03 11:46:58;;;;;;;5.73;2.43;;;16.40;1.00;;;;;;5048121;28;20463;-53
2022/10/03 11:49:32;;;;;;;4.83;2.37;;;16.60;1.00;;;;;;5046454;28;20507;-54
2022/10/03 11:52:23;;;;;;;6.33;1.70;;;16.40;1.00;;;;;;5048183;28;20177;-52
2022/10/03 11:55:01;;;;;;;6.03;2.30;;;16.30;1.00;;;;;;5045686;28;20477;-54
2022/10/03 11:57:35;;;;;;;5.67;1.90;;;16.30;1.00;;;;;;5043085;28;20462;-56
2022/10/03 12:00:24;;;;;;;8.13;2.17;;;16.20;1.00;;;;;;5051785;28;20967;-53
2022/10/03 12:02:52;;;;;;;6.20;1.87;;;16.30;1.00;;;;;;5046258;28;20464;-56
2022/10/03 12:05:37;;;;;;;5.03;2.53;;;16.30;1.00;;;;;;5046199;28;20446;-54
2022/10/03 12:11:22;;;;;;;4.93;2.20;;;16.30;1.00;;;;;;5047722;28;20872;-53
2022/10/03 12:14:00;;;;;;;11.47;2.50;;;16.40;1.00;;;;;;5049752;28;20528;-56
2022/10/03 12:16:30;;;;;;;8.33;2.30;;;16.60;1.00;;;;;;5049414;28;20413;-52
2022/10/03 12:19:37;;;;;;;8.40;2.20;;;16.50;1.00;;;;;;5048641;28;20445;-56
2022/10/03 12:22:21;;;;;;;3.43;1.93;;;16.60;1.00;;;;;;5046030;28;20456;-56
2022/10/03 12:24:48;;;;;;;4.40;2.20;;;16.80;1.00;;;;;;5050246;28;20414;-55
2022/10/03 12:27:25;;;;;;;5.30;1.77;;;16.90;1.00;;;;;;5048529;28;20465;-54
2022/10/03 12:29:59;;;;;;;5.73;1.90;;;17.10;1.00;;;;;;5047846;28;20438;-54
2022/10/03 12:32:27;;;;;;;5.53;2.30;;;17.10;1.00;;;;;;5049650;28;20431;-55
2022/10/03 12:34:55;;;;;;;10.53;2.10;;;16.80;1.00;;;;;;5046089;28;20766;-52
2022/10/03 12:37:30;;;;;;;4.60;2.23;;;16.80;1.00;;;;;;5049204;28;20409;-52
2022/10/03 12:40:16;;;;;;;5.73;1.60;;;16.50;1.00;;;;;;5050016;28;20516;-53
2022/10/03 12:42:57;;;;;;;6.90;2.07;;;16.50;1.00;;;;;;5049032;28;20466;-55
2022/10/03 12:45:33;;;;;;;9.73;2.33;;;16.50;1.00;;;;;;5053077;28;20985;-56
2022/10/03 12:48:31;;;;;;;6.77;2.43;;;16.60;1.00;;;;;;5066078;28;20485;-54
2022/10/03 12:51:12;;;;;;;4.60;1.93;;;16.60;1.00;;;;;;5048198;28;20408;-53
2022/10/03 12:54:10;;;;;;;5.50;2.03;;;16.50;1.00;;;;;;5048356;28;20450;-54
2022/10/03 12:57:00;;;;;;;10.93;1.90;;;16.40;1.00;;;;;;5047080;28;20804;-54
2022/10/03 12:59:30;;;;;;;4.40;1.40;;;16.30;1.00;;;;;;5048951;28;20417;-53
2022/10/03 13:02:34;;;;;;;3.43;1.90;;;16.40;1.00;;;;;;5044343;28;20454;-56
2022/10/03 13:05:06;;;;;;;4.30;2.07;;;16.30;1.00;;;;;;5028785;28;20572;-55
2022/10/03 13:07:51;;;;;;;9.50;3.73;;;16.40;1.00;;;;;;5046404;28;20467;-55
2022/10/03 13:10:18;;;;;;;5.37;1.87;;;;;;;;;;5047717;28;20453;-54
2022/10/03 13:12:59;;;;;;;6.10;2.10;;;16.40;1.00;;;;;;5047518;28;20454;-53
2022/10/03 13:15:46;;;;;;;5.77;2.30;;;16.40;1.00;;;;;;5044236;28;20753;-55
2022/10/03 13:18:20;;;;;;;7.93;2.43;;;16.50;1.00;;;;;;5059913;28;20440;-54
2022/10/03 13:21:10;;;;;;;8.40;2.90;;;16.60;1.00;;;;;;5048788;28;20987;-56
2022/10/03 13:23:53;;;;;;;5.90;3.37;;;16.50;1.00;;;;;;5046263;28;20449;-54
2022/10/03 13:26:37;;;;;;;3.10;1.40;;;16.50;1.00;;;;;;5047919;28;20458;-54
2022/10/03 13:29:13;;;;;;;7.43;1.97;;;16.60;1.00;;;;;;5045091;28;20454;-52
2022/10/03 13:32:01;;;;;;;4.13;1.63;;;16.50;1.00;;;;;;5049231;28;20446;-56
2022/10/03 13:34:32;;;;;;;9.20;2.67;;;16.50;1.00;;;;;;5046431;28;20504;-57
2022/10/03 13:37:11;;;;;;;7.23;1.87;;;16.60;1.00;;;;;;5048154;28;20453;-56
2022/10/03 13:39:52;;;;;;;7.03;1.80;;;16.70;1.00;;;;;;5040746;28;20428;-54
2022/10/03 13:42:20;;;;;;;5.40;1.70;;;16.80;1.00;;;;;;5049259;28;20456;-55
2022/10/03 13:44:54;;;;;;;6.63;2.23;;;17.10;1.00;;;;;;5040965;28;20790;-56
2022/10/03 13:47:41;;;;;;;4.40;1.77;;;17.20;1.00;;;;;;5051788;28;20796;-55
2022/10/03 13:50:35;;;;;;;7.33;3.10;;;17.10;1.00;;;;;;5051687;28;20462;-54
2022/10/03 13:53:14;;;;;;;6.07;1.93;;;17.00;1.00;;;;;;5051813;28;20437;-56
2022/10/03 13:56:00;;;;;;;6.57;2.07;;;16.80;1.00;;;;;;5052763;28;20487;-56
2022/10/03 13:58:42;;;;;;;6.30;2.40;;;16.80;1.00;;;;;;5056527;28;20397;-55
2022/10/03 14:01:26;;;;;;;5.20;2.13;;;16.90;1.00;;;;;;5054037;28;20598;-57
2022/10/03 14:04:07;;;;;;;4.20;2.27;;;16.90;1.00;;;;;;5047955;28;20928;-55
2022/10/03 14:06:59;;;;;;;5.83;2.33;;;16.70;1.00;;;;;;5052008;28;20916;-56
2022/10/03 14:09:37;;;;;;;6.23;1.77;;;16.50;1.00;;;;;;5048749;28;20460;-57
2022/10/03 14:12:28;;;;;;;2.77;1.20;;;16.40;1.00;;;;;;5051897;28;20503;-55
2022/10/03 14:15:17;;;;;;;4.50;2.00;;;16.40;1.00;;;;;;5052923;28;20434;-54
2022/10/03 14:18:09;;;;;;;7.43;1.90;;;16.40;1.00;;;;;;5038510;28;20450;-55
2022/10/03 14:20:59;;;;;;;5.37;2.10;;;16.30;1.00;;;;;;5050228;28;20420;-54
2022/10/03 14:23:36;;;;;;;6.70;2.13;;;16.40;1.00;;;;;;5059403;28;20431;-54
2022/10/03 14:26:14;;;;;;;3.27;1.80;;;16.50;1.00;;;;;;5048611;28;20460;-55
2022/10/03 14:29:07;;;;;;;7.53;2.17;;;16.40;1.00;;;;;;5051451;28;20477;-55
2022/10/03 14:32:01;;;;;;;5.00;2.17;;;16.40;1.00;;;;;;5040088;28;20441;-54
2022/10/03 14:34:52;;;;;;;6.07;1.90;;;16.50;1.00;;;;;;5051628;28;20754;-55
2022/10/03 14:37:29;;;;;;;5.87;2.20;;;16.60;1.00;;;;;;5047194;28;20450;-55
2022/10/03 14:40:16;;;;;;;6.10;1.73;;;16.50;1.00;;;;;;5046043;28;20459;-57